Time;durP1;ratioP1;P1;durP2;ratioP2;P2;SDS_P1;SDS_P2;PMS_P1;PMS_P2;Temp;Humidity;BMP_temperature;BMP_pressure;BME280_temperature;BME280_humidity;BME280_pressure;Samples;Min_cycle;Max_cycle;Signal;HPM_P1;HPM_P2
2023/07/03 00:00:18;;;;;;;9.60;5.82;;;;;;;;;;5027548;28;20049;-70
2023/07/03 00:02:49;;;;;;;9.98;6.20;;;;;;;;;;5031539;28;20536;-71
2023/07/03 00:05:16;;;;;;;10.57;5.57;;;;;;;;;;5028223;28;20406;-73
2023/07/03 00:07:41;;;;;;;6.95;5.25;;;;;;;;;;5030348;28;20192;-72
2023/07/03 00:10:08;;;;;;;12.55;6.25;;;;;;;;;;5022984;28;20495;-70
2023/07/03 00:12:34;;;;;;;9.00;5.60;;;;;;;;;;5022070;28;20049;-72
2023/07/03 00:15:00;;;;;;;10.65;6.18;;;;;;;;;;5027956;28;20053;-73
2023/07/03 00:17:25;;;;;;;10.10;6.03;;;;;;;;;;5022584;28;20048;-72
2023/07/03 00:19:51;;;;;;;8.73;5.65;;;;;;;;;;5031798;28;20406;-72
2023/07/03 00:22:16;;;;;;;10.02;5.93;;;;;;;;;;5024725;28;20063;-72
2023/07/03 00:24:42;;;;;;;9.68;6.32;;;;;;;;;;5025933;28;20084;-71
2023/07/03 00:27:07;;;;;;;11.45;6.40;;;;;;;;;;5030275;28;20394;-73
2023/07/03 00:29:33;;;;;;;8.35;5.95;;;;;;;;;;5029179;28;20140;-72
2023/07/03 00:32:00;;;;;;;11.48;6.00;;;;;;;;;;5032036;28;20499;-72
2023/07/03 00:34:27;;;;;;;12.05;6.22;;;;;;;;;;5026031;28;20060;-73
2023/07/03 00:36:53;;;;;;;12.10;6.05;;;;;;;;;;5027311;28;20072;-72
2023/07/03 00:39:19;;;;;;;11.68;6.63;;;;;;;;;;5028868;28;20160;-71
2023/07/03 00:41:45;;;;;;;11.32;6.63;;;;;;;;;;5026399;28;20132;-71
2023/07/03 00:44:13;;;;;;;10.48;6.10;;;;;;;;;;4998267;28;20133;-71
2023/07/03 00:46:43;;;;;;;11.02;6.32;;;;;;;;;;5029628;28;20537;-71
2023/07/03 00:49:10;;;;;;;13.07;6.60;;;;;;;;;;5031802;28;20034;-73
2023/07/03 00:51:39;;;;;;;13.88;6.65;;;;;;;;;;5042498;28;20245;-72
2023/07/03 00:54:05;;;;;;;10.77;6.03;;;;;;;;;;5018983;28;20095;-71
2023/07/03 00:56:30;;;;;;;13.50;6.00;;;;;;;;;;5027942;28;20072;-70
2023/07/03 00:58:56;;;;;;;10.95;6.60;;;;;;;;;;5026507;28;20127;-71
2023/07/03 01:01:36;;;;;;;15.75;6.85;;;;;;;;;;4996237;28;20095;-72
2023/07/03 01:04:35;;;;;;;11.25;5.90;;;;;;;;;;5042785;28;20045;-71
2023/07/03 01:07:07;;;;;;;8.73;5.70;;;;;;;;;;5003785;28;20118;-71
2023/07/03 01:09:47;;;;;;;14.30;6.60;;;;;;;;;;5028930;28;20480;-69
2023/07/03 01:12:14;;;;;;;10.48;6.50;;;;;;;;;;5018275;28;20072;-71
2023/07/03 01:14:43;;;;;;;13.63;6.80;;;;;;;;;;5003884;28;21017;-71
2023/07/03 01:17:10;;;;;;;14.38;6.60;;;;;;;;;;5007671;28;20044;-72
2023/07/03 01:19:39;;;;;;;11.70;6.45;;;;;;;;;;5026098;28;20045;-72
2023/07/03 01:22:21;;;;;;;11.63;6.05;;;;;;;;;;5025418;28;20092;-71
2023/07/03 01:25:04;;;;;;;9.38;5.93;;;;;;;;;;5020256;28;20045;-71
2023/07/03 01:27:35;;;;;;;11.75;6.93;;;;;;;;;;5019767;28;20103;-70
2023/07/03 01:30:03;;;;;;;9.40;5.78;;;;;;;;;;5026151;28;20053;-71
2023/07/03 01:32:32;;;;;;;10.27;6.22;;;;;;;;;;5031015;28;20049;-71
2023/07/03 01:34:58;;;;;;;11.20;6.32;;;;;;;;;;5021764;28;20136;-70
2023/07/03 01:37:26;;;;;;;9.98;6.28;;;;;;;;;;5024353;28;20060;-71
2023/07/03 01:39:54;;;;;;;12.05;6.35;;;;;;;;;;5024595;28;20514;-71
2023/07/03 01:42:25;;;;;;;11.18;6.57;;;;;;;;;;5031136;28;20057;-72
2023/07/03 01:44:51;;;;;;;9.00;5.95;;;;;;;;;;5029786;28;20409;-73
2023/07/03 01:47:16;;;;;;;12.70;6.93;;;;;;;;;;5025301;28;20049;-72
2023/07/03 01:49:42;;;;;;;12.18;6.50;;;;;;;;;;5013929;28;20045;-72
2023/07/03 01:52:14;;;;;;;13.77;6.63;;;;;;;;;;5026013;28;20045;-72
2023/07/03 01:54:43;;;;;;;11.07;6.68;;;;;;;;;;5028288;28;20518;-71
2023/07/03 01:57:11;;;;;;;12.10;6.10;;;;;;;;;;5024726;28;20084;-72
2023/07/03 01:59:40;;;;;;;9.30;6.20;;;;;;;;;;5030320;28;20188;-71
2023/07/03 02:02:12;;;;;;;9.70;6.18;;;;;;;;;;5023126;28;20044;-73
2023/07/03 02:04:43;;;;;;;11.55;6.80;;;;;;;;;;5030122;28;20079;-73
2023/07/03 02:07:10;;;;;;;12.10;7.30;;;;;;;;;;5032674;28;20495;-73
2023/07/03 02:09:36;;;;;;;11.73;7.38;;;;;;;;;;5035743;28;20045;-74
2023/07/03 02:12:05;;;;;;;11.75;6.68;;;;;;;;;;5011389;28;20056;-73
2023/07/03 02:14:34;;;;;;;10.88;6.75;;;;;;;;;;5013308;28;20056;-73
2023/07/03 02:17:01;;;;;;;16.50;7.68;;;;;;;;;;5015813;28;20053;-73
2023/07/03 02:19:29;;;;;;;15.02;7.05;;;;;;;;;;5021172;28;20049;-73
2023/07/03 02:21:56;;;;;;;12.88;6.88;;;;;;;;;;5011503;28;20045;-73
2023/07/03 02:24:22;;;;;;;14.13;6.90;;;;;;;;;;5033830;28;20509;-73
2023/07/03 02:26:48;;;;;;;11.38;6.88;;;;;;;;;;5033189;28;20040;-71
2023/07/03 02:29:14;;;;;;;14.07;7.15;;;;;;;;;;4996740;28;20053;-71
2023/07/03 02:31:39;;;;;;;14.90;7.15;;;;;;;;;;5023115;28;20064;-71
2023/07/03 02:34:05;;;;;;;12.85;7.35;;;;;;;;;;5030016;28;20041;-72
2023/07/03 02:36:34;;;;;;;13.43;7.38;;;;;;;;;;5028276;28;20053;-72
2023/07/03 02:39:01;;;;;;;15.27;7.43;;;;;;;;;;5011562;28;20049;-71
2023/07/03 02:41:27;;;;;;;11.80;6.78;;;;;;;;;;5033239;28;20053;-73
2023/07/03 02:43:54;;;;;;;10.93;6.70;;;;;;;;;;5032297;28;20141;-72
2023/07/03 02:46:20;;;;;;;15.85;7.00;;;;;;;;;;5013177;28;20117;-72
2023/07/03 02:48:46;;;;;;;14.60;7.47;;;;;;;;;;5026053;28;20557;-70
2023/07/03 02:51:11;;;;;;;14.25;7.75;;;;;;;;;;5022907;28;20041;-73
2023/07/03 02:53:37;;;;;;;11.95;7.45;;;;;;;;;;4997917;28;20051;-71
2023/07/03 02:56:09;;;;;;;13.55;7.75;;;;;;;;;;5026586;28;20567;-74
2023/07/03 02:58:37;;;;;;;14.55;7.95;;;;;;;;;;5020802;28;20050;-73
2023/07/03 03:01:03;;;;;;;14.00;8.00;;;;;;;;;;5007881;28;20045;-71
2023/07/03 03:03:29;;;;;;;13.65;7.68;;;;;;;;;;5024798;28;20064;-72
2023/07/03 03:05:55;;;;;;;12.40;7.30;;;;;;;;;;5023931;28;20094;-73
2023/07/03 03:08:23;;;;;;;14.32;8.20;;;;;;;;;;5014705;28;20042;-73
2023/07/03 03:10:50;;;;;;;13.57;7.22;;;;;;;;;;5031440;28;20566;-72
2023/07/03 03:13:16;;;;;;;13.48;7.55;;;;;;;;;;5013838;28;21100;-73
2023/07/03 03:15:42;;;;;;;12.57;7.32;;;;;;;;;;5030355;28;20052;-73
2023/07/03 03:18:07;;;;;;;15.70;7.20;;;;;;;;;;5024443;28;20379;-73
2023/07/03 03:20:33;;;;;;;12.85;7.63;;;;;;;;;;5030091;28;20136;-72
2023/07/03 03:22:58;;;;;;;14.40;8.18;;;;;;;;;;5013091;28;20046;-73
2023/07/03 03:25:24;;;;;;;13.27;7.20;;;;;;;;;;5031676;28;20052;-70
2023/07/03 03:27:49;;;;;;;16.42;7.53;;;;;;;;;;5021787;28;20133;-70
2023/07/03 03:30:15;;;;;;;11.40;7.25;;;;;;;;;;5009381;28;20076;-71
2023/07/03 03:32:43;;;;;;;13.13;7.45;;;;;;;;;;5023713;28;20124;-73
2023/07/03 03:35:09;;;;;;;13.10;7.20;;;;;;;;;;5023126;28;20049;-71
2023/07/03 03:37:35;;;;;;;15.85;8.25;;;;;;;;;;5024535;28;20054;-72
2023/07/03 03:40:03;;;;;;;10.57;6.88;;;;;;;;;;5029124;28;20568;-72
2023/07/03 03:42:29;;;;;;;14.25;7.32;;;;;;;;;;5032856;28;20064;-73
2023/07/03 03:44:56;;;;;;;13.10;7.15;;;;;;;;;;5024226;28;20567;-73
2023/07/03 03:47:22;;;;;;;13.40;7.07;;;;;;;;;;5026385;28;20495;-75
2023/07/03 03:49:48;;;;;;;14.65;7.40;;;;;;;;;;5025788;28;20498;-75
2023/07/03 03:52:14;;;;;;;17.20;8.07;;;;;;;;;;5036316;28;20045;-74
2023/07/03 03:54:39;;;;;;;12.80;7.28;;;;;;;;;;5029776;28;20045;-74
2023/07/03 03:57:05;;;;;;;18.63;7.82;;;;;;;;;;4993404;28;20053;-75
2023/07/03 03:59:31;;;;;;;17.13;8.52;;;;;;;;;;5027998;28;20049;-75
2023/07/03 04:01:57;;;;;;;15.18;7.63;;;;;;;;;;5024905;28;20049;-75
2023/07/03 04:04:22;;;;;;;12.32;7.53;;;;;;;;;;5016445;28;20058;-75
2023/07/03 04:06:48;;;;;;;16.73;8.43;;;;;;;;;;5025534;28;20059;-74
2023/07/03 04:09:13;;;;;;;15.65;8.10;;;;;;;;;;5027546;28;20520;-74
2023/07/03 04:11:39;;;;;;;16.35;8.15;;;;;;;;;;5025976;28;20159;-74
2023/07/03 04:14:04;;;;;;;12.68;7.40;;;;;;;;;;5022962;28;20096;-74
2023/07/03 04:16:31;;;;;;;13.32;7.75;;;;;;;;;;4992243;28;20053;-74
2023/07/03 04:18:57;;;;;;;14.48;7.68;;;;;;;;;;5024050;28;20049;-74
2023/07/03 04:21:23;;;;;;;14.88;7.65;;;;;;;;;;5028314;28;20049;-73
2023/07/03 04:23:48;;;;;;;14.30;7.70;;;;;;;;;;5029373;28;20564;-74
2023/07/03 04:26:15;;;;;;;14.18;8.65;;;;;;;;;;5031046;28;20041;-76
2023/07/03 04:28:41;;;;;;;13.23;8.27;;;;;;;;;;5029679;28;20438;-76
2023/07/03 04:31:06;;;;;;;13.07;7.50;;;;;;;;;;5028238;28;20048;-74
2023/07/03 04:33:32;;;;;;;17.60;8.07;;;;;;;;;;5030039;28;20045;-74
2023/07/03 04:35:57;;;;;;;17.98;7.70;;;;;;;;;;5007468;28;20156;-74
2023/07/03 04:38:26;;;;;;;16.83;8.60;;;;;;;;;;5026644;28;20037;-75
2023/07/03 04:40:53;;;;;;;16.02;7.65;;;;;;;;;;5010284;28;20082;-74
2023/07/03 04:43:20;;;;;;;13.25;8.27;;;;;;;;;;5026319;28;20056;-75
2023/07/03 04:45:50;;;;;;;18.55;8.00;;;;;;;;;;4988348;28;20044;-74
2023/07/03 04:48:17;;;;;;;14.95;7.38;;;;;;;;;;5030215;28;20160;-74
2023/07/03 04:50:45;;;;;;;16.15;7.78;;;;;;;;;;5029553;28;20087;-74
2023/07/03 04:53:11;;;;;;;14.57;8.20;;;;;;;;;;5023221;28;20455;-74
2023/07/03 04:55:38;;;;;;;16.52;7.50;;;;;;;;;;5023335;28;20557;-74
2023/07/03 04:58:05;;;;;;;14.05;7.45;;;;;;;;;;5026543;28;20078;-74
2023/07/03 05:00:31;;;;;;;13.45;7.85;;;;;;;;;;5027613;28;20041;-74
2023/07/03 05:02:58;;;;;;;17.25;7.85;;;;;;;;;;5007632;28;20151;-75
2023/07/03 05:05:25;;;;;;;16.25;7.80;;;;;;;;;;5020119;28;20049;-75
2023/07/03 05:07:51;;;;;;;13.98;8.05;;;;;;;;;;5024262;28;20164;-75
2023/07/03 05:10:17;;;;;;;18.90;8.48;;;;;;;;;;5018684;28;20065;-74
2023/07/03 05:12:44;;;;;;;19.13;8.30;;;;;;;;;;5010047;28;20032;-74
2023/07/03 05:15:11;;;;;;;16.73;7.65;;;;;;;;;;5025367;28;20045;-74
2023/07/03 05:17:38;;;;;;;18.92;8.20;;;;;;;;;;5025232;28;20060;-74
2023/07/03 05:20:15;;;;;;;16.08;7.50;;;;;;;;;;5025841;28;20069;-74
2023/07/03 05:22:43;;;;;;;14.98;7.65;;;;;;;;;;5029985;28;20187;-74
2023/07/03 05:25:10;;;;;;;16.83;8.23;;;;;;;;;;5026564;28;20064;-74
2023/07/03 05:27:36;;;;;;;16.73;7.57;;;;;;;;;;5032148;28;20485;-75
2023/07/03 05:30:03;;;;;;;15.65;7.60;;;;;;;;;;5027403;28;20053;-74
2023/07/03 05:32:29;;;;;;;12.20;7.32;;;;;;;;;;5034644;28;20041;-73
2023/07/03 05:34:54;;;;;;;18.20;7.90;;;;;;;;;;5027903;28;20040;-74
2023/07/03 05:37:20;;;;;;;14.50;7.97;;;;;;;;;;5026538;28;20156;-72
2023/07/03 05:39:48;;;;;;;14.52;7.95;;;;;;;;;;5022892;28;20049;-72
2023/07/03 05:42:17;;;;;;;14.27;8.10;;;;;;;;;;5023129;28;20076;-72
2023/07/03 05:44:44;;;;;;;13.68;7.57;;;;;;;;;;5023449;28;20622;-72
2023/07/03 05:47:10;;;;;;;14.20;8.25;;;;;;;;;;5022042;28;20045;-71
2023/07/03 05:49:35;;;;;;;14.30;7.20;;;;;;;;;;5027761;28;20079;-71
2023/07/03 05:52:00;;;;;;;14.07;8.18;;;;;;;;;;5030058;28;20132;-71
2023/07/03 05:54:26;;;;;;;19.10;10.55;;;;;;;;;;5027246;28;20079;-73
2023/07/03 05:56:59;;;;;;;24.27;13.13;;;;;;;;;;5022161;28;20049;-71
2023/07/03 05:59:25;;;;;;;24.35;12.15;;;;;;;;;;5023260;28;20050;-73
2023/07/03 06:01:53;;;;;;;19.50;9.98;;;;;;;;;;5022664;28;20091;-71
2023/07/03 06:04:19;;;;;;;13.18;7.90;;;;;;;;;;5025082;28;20059;-71
2023/07/03 06:06:44;;;;;;;13.02;7.30;;;;;;;;;;5029512;28;20049;-72
2023/07/03 06:09:10;;;;;;;14.10;7.50;;;;;;;;;;5026070;28;20893;-71
2023/07/03 06:11:35;;;;;;;18.25;8.77;;;;;;;;;;5027241;28;20044;-72
2023/07/03 06:14:01;;;;;;;15.25;8.35;;;;;;;;;;5033772;28;20049;-71
2023/07/03 06:16:27;;;;;;;16.90;7.65;;;;;;;;;;5032798;28;20126;-71
2023/07/03 06:18:54;;;;;;;17.55;8.43;;;;;;;;;;5023490;28;20115;-71
2023/07/03 06:21:19;;;;;;;13.77;7.82;;;;;;;;;;5022537;28;20049;-75
2023/07/03 06:23:45;;;;;;;20.90;8.63;;;;;;;;;;5024165;28;20453;-73
2023/07/03 06:26:10;;;;;;;19.00;7.85;;;;;;;;;;5021457;28;20045;-73
2023/07/03 06:28:36;;;;;;;19.50;8.85;;;;;;;;;;5032767;28;20517;-74
2023/07/03 06:31:02;;;;;;;17.33;8.38;;;;;;;;;;5030856;28;20045;-73
2023/07/03 06:33:28;;;;;;;19.13;8.57;;;;;;;;;;5033822;28;20090;-74
2023/07/03 06:35:54;;;;;;;16.42;8.07;;;;;;;;;;5031834;28;20045;-72
2023/07/03 06:38:19;;;;;;;18.67;8.55;;;;;;;;;;5029263;28;20470;-72
2023/07/03 06:40:54;;;;;;;16.80;8.48;;;;;;;;;;5023182;28;20991;-73
2023/07/03 06:43:20;;;;;;;19.25;7.68;;;;;;;;;;5025670;28;20049;-73
2023/07/03 06:45:45;;;;;;;16.95;8.73;;;;;;;;;;5028271;28;20394;-72
2023/07/03 06:48:11;;;;;;;15.43;8.52;;;;;;;;;;5026811;28;20864;-73
2023/07/03 06:50:36;;;;;;;14.88;8.63;;;;;;;;;;5026091;28;20041;-73
2023/07/03 06:53:02;;;;;;;15.35;8.02;;;;;;;;;;5025369;28;20509;-73
2023/07/03 06:55:27;;;;;;;16.30;8.98;;;;;;;;;;5028176;28;20152;-73
2023/07/03 06:57:53;;;;;;;15.05;8.63;;;;;;;;;;5024484;28;20044;-73
2023/07/03 07:00:18;;;;;;;13.45;7.78;;;;;;;;;;5025004;28;20041;-73
2023/07/03 07:02:44;;;;;;;16.38;8.43;;;;;;;;;;5029654;28;20068;-72
2023/07/03 07:05:09;;;;;;;15.40;7.95;;;;;;;;;;5025328;28;20037;-72
2023/07/03 07:07:35;;;;;;;18.45;8.05;;;;;;;;;;5003222;28;20057;-73
2023/07/03 07:10:00;;;;;;;17.02;8.25;;;;;;;;;;5024589;28;20121;-73
2023/07/03 07:12:26;;;;;;;15.43;8.15;;;;;;;;;;5029981;28;20418;-72
2023/07/03 07:14:51;;;;;;;17.52;7.50;;;;;;;;;;5026261;28;20053;-73
2023/07/03 07:17:17;;;;;;;17.35;8.23;;;;;;;;;;5023173;28;20132;-70
2023/07/03 07:19:42;;;;;;;14.85;8.13;;;;;;;;;;5018680;28;20041;-71
2023/07/03 07:22:07;;;;;;;18.27;8.50;;;;;;;;;;5033417;28;20075;-73
2023/07/03 07:24:33;;;;;;;16.50;8.40;;;;;;;;;;5025144;28;20128;-73
2023/07/03 07:27:00;;;;;;;14.10;7.60;;;;;;;;;;5036534;28;21085;-72
2023/07/03 07:29:26;;;;;;;13.85;8.45;;;;;;;;;;5023266;28;20049;-72
2023/07/03 07:31:55;;;;;;;15.30;8.30;;;;;;;;;;5018866;28;20052;-71
2023/07/03 07:34:21;;;;;;;16.58;8.50;;;;;;;;;;5021405;28;20080;-72
2023/07/03 07:36:46;;;;;;;16.20;8.73;;;;;;;;;;5024742;28;20045;-72
2023/07/03 07:39:12;;;;;;;15.75;7.82;;;;;;;;;;5026150;28;20046;-71
2023/07/03 07:41:37;;;;;;;12.93;7.97;;;;;;;;;;5035633;28;20155;-72
2023/07/03 07:44:04;;;;;;;17.33;8.70;;;;;;;;;;5020274;28;20051;-71
2023/07/03 07:46:32;;;;;;;17.15;8.35;;;;;;;;;;5021251;28;20045;-71
2023/07/03 07:48:58;;;;;;;13.50;7.70;;;;;;;;;;5011596;28;20046;-71
2023/07/03 07:51:24;;;;;;;14.60;7.55;;;;;;;;;;5027098;28;20052;-72
2023/07/03 07:53:51;;;;;;;15.65;7.53;;;;;;;;;;5026359;28;20053;-71
2023/07/03 07:56:17;;;;;;;19.05;7.68;;;;;;;;;;5009784;28;20076;-72
2023/07/03 07:58:42;;;;;;;12.98;6.55;;;;;;;;;;5027233;28;20236;-71
2023/07/03 08:01:11;;;;;;;19.45;8.05;;;;;;;;;;5028447;28;20228;-72
2023/07/03 08:03:39;;;;;;;13.30;6.68;;;;;;;;;;5026958;28;20053;-73
2023/07/03 08:06:05;;;;;;;16.05;7.40;;;;;;;;;;5020406;28;20049;-72
2023/07/03 08:08:31;;;;;;;13.55;6.63;;;;;;;;;;5019291;28;20049;-74
2023/07/03 08:10:59;;;;;;;11.43;6.35;;;;;;;;;;5020708;28;20056;-70
2023/07/03 08:13:25;;;;;;;13.23;7.15;;;;;;;;;;5020564;28;20160;-71
2023/07/03 08:15:51;;;;;;;11.80;6.53;;;;;;;;;;5026429;28;20049;-73
2023/07/03 08:18:18;;;;;;;13.02;6.50;;;;;;;;;;5020603;28;20075;-73
2023/07/03 08:20:44;;;;;;;13.55;6.53;;;;;;;;;;5019190;28;20041;-71
2023/07/03 08:23:10;;;;;;;13.48;6.20;;;;;;;;;;5020208;28;20469;-73
2023/07/03 08:25:36;;;;;;;15.15;7.10;;;;;;;;;;5022637;28;20913;-72
2023/07/03 08:28:01;;;;;;;17.75;6.13;;;;;;;;;;5021239;28;20111;-70
2023/07/03 08:30:28;;;;;;;12.02;6.10;;;;;;;;;;5027815;28;20524;-70
2023/07/03 08:32:53;;;;;;;12.85;5.75;;;;;;;;;;5010273;28;20485;-72
2023/07/03 08:35:19;;;;;;;8.20;5.15;;;;;;;;;;5022484;28;20144;-72
2023/07/03 08:37:44;;;;;;;11.45;5.68;;;;;;;;;;5021718;28;20075;-71
2023/07/03 08:40:16;;;;;;;10.43;6.10;;;;;;;;;;5034759;28;20103;-72
2023/07/03 08:42:55;;;;;;;9.80;5.50;;;;;;;;;;5027742;28;20037;-72
2023/07/03 08:45:30;;;;;;;11.65;5.95;;;;;;;;;;5019257;28;20082;-70
2023/07/03 08:47:56;;;;;;;11.90;5.80;;;;;;;;;;5021759;28;20069;-70
2023/07/03 08:50:23;;;;;;;10.18;5.57;;;;;;;;;;5011048;28;20060;-74
2023/07/03 08:52:57;;;;;;;10.50;5.95;;;;;;;;;;5032428;28;20082;-73
2023/07/03 08:55:33;;;;;;;9.30;5.40;;;;;;;;;;5028257;28;20045;-74
2023/07/03 08:57:59;;;;;;;10.93;5.95;;;;;;;;;;5018928;28;20049;-76
2023/07/03 09:00:26;;;;;;;10.68;4.95;;;;;;;;;;5027139;28;20064;-76
2023/07/03 09:02:58;;;;;;;8.35;4.30;;;;;;;;;;5023469;28;20156;-77
2023/07/03 09:06:14;;;;;;;11.73;5.28;;;;;;;;;;5021787;28;20099;-74
2023/07/03 09:08:57;;;;;;;10.00;5.00;;;;;;;;;;5003411;28;20037;-74
2023/07/03 09:11:27;;;;;;;8.55;4.25;;;;;;;;;;5028895;28;20050;-75
2023/07/03 09:13:55;;;;;;;11.35;5.22;;;;;;;;;;5027407;28;20049;-75
2023/07/03 09:16:23;;;;;;;11.23;5.28;;;;;;;;;;5032824;28;20487;-75
2023/07/03 09:18:57;;;;;;;7.72;4.47;;;;;;;;;;5033733;28;20087;-75
2023/07/03 09:21:25;;;;;;;9.93;4.88;;;;;;;;;;5023484;28;20518;-75
2023/07/03 09:24:26;;;;;;;8.88;5.18;;;;;;;;;;5009090;28;21082;-74
2023/07/03 09:27:10;;;;;;;8.45;4.82;;;;;;;;;;5001574;28;20037;-74
2023/07/03 09:29:37;;;;;;;12.20;4.47;;;;;;;;;;5001184;28;20045;-74
2023/07/03 09:32:02;;;;;;;8.55;4.85;;;;;;;;;;5024880;28;20110;-75
2023/07/03 09:35:10;;;;;;;9.40;5.00;;;;;;;;;;5031389;28;20060;-74
2023/07/03 09:37:41;;;;;;;9.07;4.32;;;;;;;;;;5022142;28;20080;-73
2023/07/03 09:40:12;;;;;;;7.25;4.60;;;;;;;;;;5028315;28;20056;-75
2023/07/03 09:42:40;;;;;;;7.75;4.18;;;;;;;;;;5025706;28;20107;-74
2023/07/03 09:45:17;;;;;;;10.45;4.93;;;;;;;;;;5026282;28;20077;-74
2023/07/03 09:47:55;;;;;;;9.93;5.03;;;;;;;;;;5025010;28;20258;-74
2023/07/03 09:50:41;;;;;;;8.13;4.15;;;;;;;;;;5018499;28;20038;-73
2023/07/03 09:53:16;;;;;;;7.95;4.47;;;;;;;;;;5019365;28;20037;-73
2023/07/03 09:55:42;;;;;;;8.70;4.35;;;;;;;;;;5034994;28;20049;-74
2023/07/03 09:58:13;;;;;;;9.30;4.60;;;;;;;;;;5018888;28;20486;-73
2023/07/03 10:00:52;;;;;;;8.30;4.23;;;;;;;;;;4998626;28;20449;-73
2023/07/03 10:03:25;;;;;;;7.97;4.20;;;;;;;;;;5024561;28;20041;-73
2023/07/03 10:05:51;;;;;;;7.97;4.57;;;;;;;;;;5018292;28;20053;-72
2023/07/03 10:08:20;;;;;;;6.32;4.18;;;;;;;;;;5018715;28;20099;-72
2023/07/03 10:10:46;;;;;;;8.60;4.57;;;;;;;;;;5019343;28;20049;-73
2023/07/03 10:13:23;;;;;;;6.90;3.80;;;;;;;;;;5019494;28;20034;-72
2023/07/03 10:15:51;;;;;;;9.07;4.63;;;;;;;;;;5029878;28;20053;-73
2023/07/03 10:18:31;;;;;;;9.88;4.35;;;;;;;;;;5024476;28;20079;-74
2023/07/03 10:20:58;;;;;;;7.95;4.00;;;;;;;;;;5033844;28;20083;-75
2023/07/03 10:23:27;;;;;;;9.25;4.82;;;;;;;;;;5021935;28;20049;-73
2023/07/03 10:26:11;;;;;;;9.15;3.97;;;;;;;;;;5020541;28;20058;-74
2023/07/03 10:29:05;;;;;;;9.43;4.32;;;;;;;;;;5028460;28;20045;-74
2023/07/03 10:31:51;;;;;;;6.13;4.40;;;;;;;;;;5019880;28;20053;-73
2023/07/03 10:34:57;;;;;;;7.40;3.50;;;;;;;;;;5021740;28;20056;-73
2023/07/03 10:37:25;;;;;;;6.20;3.90;;;;;;;;;;5020607;28;20080;-75
2023/07/03 10:39:57;;;;;;;5.72;4.07;;;;;;;;;;5028116;28;20054;-73
2023/07/03 10:42:42;;;;;;;8.35;3.38;;;;;;;;;;5022462;28;20096;-74
2023/07/03 10:45:13;;;;;;;8.82;3.30;;;;;;;;;;5022326;28;20045;-73
2023/07/03 10:48:00;;;;;;;6.75;3.60;;;;;;;;;;5023722;28;20124;-73
2023/07/03 10:50:31;;;;;;;5.22;3.30;;;;;;;;;;5003955;28;20095;-73
2023/07/03 10:53:03;;;;;;;6.68;3.67;;;;;;;;;;5022817;28;20049;-72
2023/07/03 10:55:36;;;;;;;5.95;3.58;;;;;;;;;;5022207;28;20066;-73
2023/07/03 10:58:19;;;;;;;13.18;3.60;;;;;;;;;;5019102;28;20111;-73
2023/07/03 11:01:11;;;;;;;6.20;3.17;;;;;;;;;;4996923;28;20160;-73
2023/07/03 11:03:40;;;;;;;;;;;;;;;;;;5017602;28;20053;-70
2023/07/03 11:06:14;;;;;;;5.35;3.17;;;;;;;;;;5025229;28;20389;-70
2023/07/03 11:08:51;;;;;;;7.72;3.75;;;;;;;;;;5022033;28;20047;-72
2023/07/03 11:11:25;;;;;;;5.70;3.50;;;;;;;;;;5025754;28;20140;-74
2023/07/03 11:14:12;;;;;;;12.40;4.00;;;;;;;;;;5020035;28;20053;-74
2023/07/03 11:17:02;;;;;;;8.10;3.58;;;;;;;;;;5015199;28;20045;-72
2023/07/03 11:20:09;;;;;;;7.05;3.20;;;;;;;;;;5021803;28;20092;-73
2023/07/03 11:22:41;;;;;;;6.35;3.58;;;;;;;;;;5012098;28;20044;-72
2023/07/03 11:25:49;;;;;;;4.63;3.55;;;;;;;;;;5021829;28;20441;-72
2023/07/03 11:28:26;;;;;;;5.30;3.25;;;;;;;;;;5008513;28;20195;-72
2023/07/03 11:30:52;;;;;;;6.60;3.42;;;;;;;;;;5022297;28;20072;-73
2023/07/03 11:33:21;;;;;;;6.03;3.40;;;;;;;;;;5015811;28;20052;-74
2023/07/03 11:35:54;;;;;;;8.18;3.50;;;;;;;;;;5025916;28;20068;-73
2023/07/03 11:38:20;;;;;;;3.90;3.00;;;;;;;;;;5030282;28;20055;-73
2023/07/03 11:40:52;;;;;;;10.13;3.67;;;;;;;;;;5021597;28;20053;-73
2023/07/03 11:43:18;;;;;;;;;;;;;;;;;;5027233;28;20148;-74
2023/07/03 11:46:03;;;;;;;7.40;3.67;;;;;;;;;;5025827;28;19927;-73
2023/07/03 11:48:37;;;;;;;11.02;3.92;;;;;;;;;;5031214;28;20049;-73
2023/07/03 11:51:15;;;;;;;7.07;3.63;;;;;;;;;;5030695;28;20065;-73
2023/07/03 11:53:53;;;;;;;5.93;3.28;;;;;;;;;;5029759;28;20078;-73
2023/07/03 11:56:30;;;;;;;5.93;3.75;;;;;;;;;;5022375;28;20045;-74
2023/07/03 11:59:05;;;;;;;6.32;3.58;;;;;;;;;;5029646;28;20063;-74
2023/07/03 12:01:31;;;;;;;7.32;3.97;;;;;;;;;;5029140;28;20049;-74
2023/07/03 12:04:00;;;;;;;6.65;3.88;;;;;;;;;;5030668;28;20041;-73
2023/07/03 12:06:40;;;;;;;5.25;3.20;;;;;;;;;;5025059;28;20388;-73
2023/07/03 12:09:21;;;;;;;9.23;4.13;;;;;;;;;;5029764;28;20475;-73
2023/07/03 12:12:03;;;;;;;5.75;3.40;;;;;;;;;;5025334;28;20073;-74
2023/07/03 12:14:44;;;;;;;7.53;3.83;;;;;;;;;;5025521;28;20056;-74
2023/07/03 12:17:28;;;;;;;5.90;3.47;;;;;;;;;;5007442;28;20140;-74
2023/07/03 12:20:02;;;;;;;4.60;3.45;;;;;;;;;;5026795;28;20088;-73
2023/07/03 12:22:28;;;;;;;6.38;3.30;;;;;;;;;;5015781;28;20036;-73
2023/07/03 12:25:11;;;;;;;6.57;3.45;;;;;;;;;;5024061;28;20048;-73
2023/07/03 12:27:38;;;;;;;8.40;4.20;;;;;;;;;;5019401;28;20449;-73
2023/07/03 12:30:18;;;;;;;6.57;3.28;;;;;;;;;;5029122;28;20045;-74
2023/07/03 12:32:48;;;;;;;7.63;3.30;;;;;;;;;;5029063;28;20046;-73
2023/07/03 12:35:18;;;;;;;6.43;4.25;;;;;;;;;;5025661;28;20052;-74
2023/07/03 12:37:53;;;;;;;6.85;3.70;;;;;;;;;;5018620;28;20969;-74
2023/07/03 12:40:20;;;;;;;9.85;4.35;;;;;;;;;;5022746;28;20477;-74
2023/07/03 12:42:52;;;;;;;9.13;3.55;;;;;;;;;;5023152;28;20063;-73
2023/07/03 12:45:36;;;;;;;6.15;3.78;;;;;;;;;;5022317;28;20049;-74
2023/07/03 12:48:07;;;;;;;7.70;3.80;;;;;;;;;;5007782;28;20094;-73
2023/07/03 12:50:37;;;;;;;6.13;4.00;;;;;;;;;;5021033;28;20049;-73
2023/07/03 12:53:04;;;;;;;6.80;3.72;;;;;;;;;;5019803;28;20041;-72
2023/07/03 12:55:36;;;;;;;5.90;3.75;;;;;;;;;;5010998;28;20041;-74
2023/07/03 12:58:01;;;;;;;67.95;6.38;;;;;;;;;;5019917;28;20045;-73
2023/07/03 13:00:30;;;;;;;6.68;3.55;;;;;;;;;;5018887;28;20917;-74
2023/07/03 13:02:57;;;;;;;6.35;3.90;;;;;;;;;;5027855;28;20135;-74
2023/07/03 13:05:23;;;;;;;6.13;3.78;;;;;;;;;;5035949;28;20140;-73
2023/07/03 13:07:50;;;;;;;8.63;3.72;;;;;;;;;;5016568;28;20457;-73
2023/07/03 13:10:17;;;;;;;8.55;4.10;;;;;;;;;;5025058;28;20516;-73
2023/07/03 13:12:43;;;;;;;6.93;3.63;;;;;;;;;;5019461;28;20537;-74
2023/07/03 13:15:13;;;;;;;9.55;3.97;;;;;;;;;;5015981;28;20052;-73
2023/07/03 13:17:42;;;;;;;7.63;3.22;;;;;;;;;;5017010;28;20053;-74
2023/07/03 13:20:20;;;;;;;7.88;4.20;;;;;;;;;;5024534;28;20049;-75
2023/07/03 13:22:49;;;;;;;6.95;4.00;;;;;;;;;;5032712;28;20049;-75
2023/07/03 13:25:48;;;;;;;8.65;4.32;;;;;;;;;;5017503;28;20046;-74
2023/07/03 13:28:29;;;;;;;7.15;4.53;;;;;;;;;;5040509;28;20049;-74
2023/07/03 13:31:19;;;;;;;11.75;4.57;;;;;;;;;;5016686;28;20069;-74
2023/07/03 13:34:05;;;;;;;7.80;3.88;;;;;;;;;;5018476;28;20461;-75
2023/07/03 13:36:43;;;;;;;7.43;3.60;;;;;;;;;;5022805;28;20049;-76
2023/07/03 13:39:13;;;;;;;7.63;4.18;;;;;;;;;;5028153;28;20060;-76
2023/07/03 13:41:41;;;;;;;6.53;3.83;;;;;;;;;;5026754;28;20038;-72
2023/07/03 13:44:09;;;;;;;10.48;4.00;;;;;;;;;;5028245;28;20102;-74
2023/07/03 13:46:36;;;;;;;6.45;3.60;;;;;;;;;;5029377;28;20437;-73
2023/07/03 13:49:02;;;;;;;10.20;4.07;;;;;;;;;;5029227;28;20534;-75
2023/07/03 13:51:29;;;;;;;7.35;3.75;;;;;;;;;;5027483;28;20041;-74
2023/07/03 13:53:55;;;;;;;5.25;3.65;;;;;;;;;;5029094;28;20049;-73
2023/07/03 13:56:21;;;;;;;4.75;3.63;;;;;;;;;;5028772;28;20125;-76
2023/07/03 13:58:47;;;;;;;4.72;3.42;;;;;;;;;;5029458;28;20053;-76
2023/07/03 14:01:12;;;;;;;9.18;4.03;;;;;;;;;;5029120;28;20045;-74
2023/07/03 14:03:39;;;;;;;6.65;4.10;;;;;;;;;;5031740;28;20052;-75
2023/07/03 14:06:07;;;;;;;5.72;3.40;;;;;;;;;;5030036;28;20091;-75
2023/07/03 14:08:33;;;;;;;6.35;3.35;;;;;;;;;;5005390;28;20437;-75
2023/07/03 14:10:59;;;;;;;9.68;4.40;;;;;;;;;;5029003;28;20497;-75
2023/07/03 14:13:24;;;;;;;5.05;3.50;;;;;;;;;;5008478;28;20044;-75
2023/07/03 14:15:50;;;;;;;5.63;3.65;;;;;;;;;;5023275;28;20045;-74
2023/07/03 14:18:17;;;;;;;6.70;3.25;;;;;;;;;;5023090;28;20064;-73
2023/07/03 14:20:45;;;;;;;15.48;4.30;;;;;;;;;;5037510;28;20100;-74
2023/07/03 14:23:10;;;;;;;7.03;3.92;;;;;;;;;;5039424;28;20045;-74
2023/07/03 14:25:37;;;;;;;8.38;3.97;;;;;;;;;;5032777;28;20060;-74
2023/07/03 14:28:04;;;;;;;8.07;3.63;;;;;;;;;;5030730;28;20048;-74
2023/07/03 14:30:30;;;;;;;8.93;3.80;;;;;;;;;;5025285;28;20054;-74
2023/07/03 14:32:55;;;;;;;4.72;3.50;;;;;;;;;;5030396;28;20037;-74
2023/07/03 14:35:21;;;;;;;8.85;3.33;;;;;;;;;;5043787;28;20123;-76
2023/07/03 14:37:47;;;;;;;6.13;3.60;;;;;;;;;;5028698;28;20045;-75
2023/07/03 14:40:12;;;;;;;11.82;3.92;;;;;;;;;;5026733;28;20045;-77
2023/07/03 14:42:38;;;;;;;6.95;4.03;;;;;;;;;;5028085;28;20048;-74
2023/07/03 14:45:04;;;;;;;6.80;3.65;;;;;;;;;;5030668;28;20056;-76
2023/07/03 14:47:29;;;;;;;8.68;3.63;;;;;;;;;;5030625;28;20052;-75
2023/07/03 14:49:55;;;;;;;10.38;3.67;;;;;;;;;;5027719;28;20052;-74